createdAt,value
2018-07-10T00:01:10.798Z,100637.87
2018-07-10T00:03:51.450Z,100635.74
2018-07-10T00:06:27.889Z,100625.97
2018-07-10T00:11:13.900Z,100629.59
2018-07-10T00:13:42.416Z,100627.23
2018-07-10T00:16:10.870Z,100628.52
2018-07-10T00:18:39.396Z,100626.31
2018-07-10T00:21:08.066Z,100631.09
2018-07-10T00:23:36.633Z,100628.64
2018-07-10T00:26:05.110Z,100634.55
2018-07-10T00:28:33.598Z,100627.73
2018-07-10T00:31:02.080Z,100626.27
2018-07-10T00:33:30.595Z,100624.68
2018-07-10T00:35:59.168Z,100625.77
2018-07-10T00:38:38.846Z,100626.42
2018-07-10T00:41:07.380Z,100621.11
2018-07-10T00:43:35.874Z,100617.03
2018-07-10T00:46:04.377Z,100606.42
2018-07-10T00:48:32.920Z,100611.70
2018-07-10T00:51:01.456Z,100612.53
2018-07-10T00:53:29.948Z,100608.28
2018-07-10T00:55:58.502Z,100608.83
2018-07-10T00:58:27.049Z,100607.00
2018-07-10T01:00:55.512Z,100596.34
2018-07-10T01:03:24.042Z,100598.22
2018-07-10T01:05:52.516Z,100603.23
2018-07-10T01:08:21.059Z,100601.16
2018-07-10T01:10:54.110Z,100595.92
2018-07-10T01:13:22.578Z,100592.00
2018-07-10T01:15:51.281Z,100586.64
2018-07-10T01:18:25.117Z,100589.30
2018-07-10T01:20:53.578Z,100579.66
2018-07-10T01:23:28.849Z,100580.58
2018-07-10T01:25:58.343Z,100585.26
2018-07-10T01:28:27.000Z,100576.57
2018-07-10T01:30:55.679Z,100574.92
2018-07-10T01:33:24.203Z,100572.56
2018-07-10T01:35:52.691Z,100571.28
2018-07-10T01:38:22.610Z,100569.61
2018-07-10T01:40:52.211Z,100567.41
2018-07-10T01:43:21.036Z,100565.03
2018-07-10T01:45:49.552Z,100563.67
2018-07-10T01:48:48.382Z,100555.83
2018-07-10T01:51:16.949Z,100561.10
2018-07-10T01:53:46.867Z,100559.36
2018-07-10T01:56:15.323Z,100561.68
2018-07-10T01:58:43.866Z,100551.07
2018-07-10T02:01:12.432Z,100551.33
2018-07-10T02:03:40.929Z,100550.98
2018-07-10T02:06:10.761Z,100555.84
2018-07-10T02:08:39.690Z,100550.98
2018-07-10T02:11:08.316Z,100554.85
2018-07-10T02:13:36.862Z,100556.03
2018-07-10T02:16:05.388Z,100553.16
2018-07-10T02:18:33.868Z,100549.78
2018-07-10T02:21:06.325Z,100546.03
2018-07-10T02:23:38.451Z,100544.74
2018-07-10T02:26:08.699Z,100544.03
2018-07-10T02:28:37.257Z,100538.20
2018-07-10T02:31:05.905Z,100541.52
2018-07-10T02:33:34.424Z,100536.53
2018-07-10T02:36:02.992Z,100537.74
2018-07-10T02:38:31.583Z,100532.66
2018-07-10T02:41:00.378Z,100538.23
2018-07-10T02:43:28.916Z,100538.31
2018-07-10T02:45:58.474Z,100542.75
2018-07-10T02:48:30.380Z,100547.18
2018-07-10T02:51:00.074Z,100544.03
2018-07-10T02:53:30.011Z,100540.58
2018-07-10T02:55:58.570Z,100536.92
2018-07-10T02:58:28.207Z,100538.55
2018-07-10T03:00:56.779Z,100534.64
2018-07-10T03:03:25.892Z,100540.17
2018-07-10T03:05:54.416Z,100542.71
2018-07-10T03:08:22.880Z,100540.73
2018-07-10T03:10:51.401Z,100538.95
2018-07-10T03:13:19.919Z,100544.37
2018-07-10T03:15:48.454Z,100546.87
2018-07-10T03:18:17.020Z,100546.06
2018-07-10T03:20:45.922Z,100536.84
2018-07-10T03:23:14.513Z,100545.59
2018-07-10T03:25:43.036Z,100535.61
2018-07-10T03:28:11.926Z,100535.20
2018-07-10T03:30:40.604Z,100533.74
2018-07-10T03:33:09.210Z,100530.06
2018-07-10T03:35:37.739Z,100518.31
2018-07-10T03:38:06.219Z,100513.30
2018-07-10T03:40:34.764Z,100509.48
2018-07-10T03:43:03.295Z,100514.32
2018-07-10T03:45:31.786Z,100514.70
2018-07-10T03:48:00.328Z,100522.11
2018-07-10T03:50:28.978Z,100516.23
2018-07-10T03:52:58.012Z,100524.81
2018-07-10T03:55:26.522Z,100523.70
2018-07-10T03:57:56.200Z,100517.25
2018-07-10T04:00:24.913Z,100517.02
2018-07-10T04:02:53.967Z,100504.83
2018-07-10T04:05:23.601Z,100507.22
2018-07-10T04:07:56.319Z,100500.62
2018-07-10T04:10:32.311Z,100507.00
2018-07-10T04:13:19.321Z,100502.88
2018-07-10T04:15:49.871Z,100494.78
2018-07-10T04:18:21.429Z,100501.23
2018-07-10T04:21:26.977Z,100508.22
2018-07-10T04:24:03.760Z,100502.97
2018-07-10T04:26:34.924Z,100499.64
2018-07-10T04:29:07.072Z,100498.05
2018-07-10T04:31:45.900Z,100507.47
2018-07-10T04:34:14.444Z,100504.30
2018-07-10T04:36:42.957Z,100500.80
2018-07-10T04:39:11.441Z,100500.73
2018-07-10T04:41:42.306Z,100500.23
2018-07-10T04:44:13.659Z,100487.77
2018-07-10T04:46:44.232Z,100482.76
2018-07-10T04:49:33.973Z,100477.27
2018-07-10T04:52:12.462Z,100480.49
2018-07-10T04:54:54.533Z,100474.44
2018-07-10T04:57:27.866Z,100479.38
2018-07-10T04:59:57.568Z,100475.69
2018-07-10T05:02:26.131Z,100471.66
2018-07-10T05:04:55.160Z,100469.92
2018-07-10T05:07:23.702Z,100464.55
2018-07-10T05:09:52.195Z,100468.30
2018-07-10T05:12:20.758Z,100459.22
2018-07-10T05:14:50.628Z,100455.05
2018-07-10T05:17:19.151Z,100452.89
2018-07-10T05:19:48.079Z,100463.53
2018-07-10T05:22:17.107Z,100459.13
2018-07-10T05:24:45.882Z,100465.34
2018-07-10T05:27:14.728Z,100464.47
2018-07-10T05:29:43.284Z,100469.78
2018-07-10T05:32:12.211Z,100467.83
2018-07-10T05:34:41.201Z,100470.78
2018-07-10T05:37:11.600Z,100472.06
2018-07-10T05:39:44.013Z,100462.02
2018-07-10T05:42:12.892Z,100466.84
2018-07-10T05:44:41.469Z,100457.58
2018-07-10T05:47:10.152Z,100466.83
2018-07-10T05:49:39.821Z,100459.78
2018-07-10T05:52:08.764Z,100465.70
2018-07-10T05:54:38.588Z,100465.39
2018-07-10T05:57:07.559Z,100464.84
2018-07-10T05:59:36.285Z,100461.25
2018-07-10T06:02:04.818Z,100461.57
2018-07-10T06:04:33.355Z,100459.99
2018-07-10T06:07:03.094Z,100459.74
2018-07-10T06:09:31.952Z,100458.73
2018-07-10T06:12:00.439Z,100459.23
2018-07-10T06:14:28.896Z,100458.41
2018-07-10T06:16:57.527Z,100456.75
2018-07-10T06:19:26.057Z,100455.42
2018-07-10T06:21:54.544Z,100453.47
2018-07-10T06:24:24.474Z,100449.55
2018-07-10T06:27:00.016Z,100447.16
2018-07-10T06:29:34.274Z,100447.05
2018-07-10T06:32:02.797Z,100451.52
2018-07-10T06:34:38.378Z,100453.91
2018-07-10T06:37:09.835Z,100445.88
2018-07-10T06:39:38.766Z,100448.05
2018-07-10T06:42:15.322Z,100446.32
2018-07-10T06:44:47.639Z,100448.28
2018-07-10T06:47:21.799Z,100446.34
2018-07-10T06:49:50.853Z,100449.81
2018-07-10T06:52:21.033Z,100444.76
2018-07-10T06:54:54.854Z,100443.61
2018-07-10T06:57:26.474Z,100443.34
2018-07-10T06:59:55.244Z,100441.67
2018-07-10T07:02:23.724Z,100439.81
2018-07-10T07:04:52.425Z,100441.48
2018-07-10T07:07:21.133Z,100438.12
2018-07-10T07:09:49.686Z,100445.60
2018-07-10T07:12:18.167Z,100442.31
2018-07-10T07:14:46.687Z,100443.61
2018-07-10T07:17:15.283Z,100444.45
2018-07-10T07:19:43.795Z,100449.27
2018-07-10T07:22:12.343Z,100444.50
2018-07-10T07:24:40.892Z,100442.65
2018-07-10T07:27:09.458Z,100442.81
2018-07-10T07:29:37.995Z,100445.17
2018-07-10T07:32:06.474Z,100440.61
2018-07-10T07:34:34.979Z,100443.38
2018-07-10T07:37:03.454Z,100443.31
2018-07-10T07:39:31.966Z,100441.35
2018-07-10T07:42:00.442Z,100442.61
2018-07-10T07:44:28.998Z,100439.61
2018-07-10T07:46:58.634Z,100434.79
2018-07-10T07:49:27.818Z,100437.74
2018-07-10T07:51:56.423Z,100439.49
2018-07-10T07:54:24.982Z,100437.66
2018-07-10T07:56:53.556Z,100438.49
2018-07-10T07:59:22.078Z,100437.66
2018-07-10T08:01:50.680Z,100445.44
2018-07-10T08:04:19.392Z,100434.42
2018-07-10T08:06:48.476Z,100441.16
2018-07-10T08:09:17.237Z,100443.35
2018-07-10T08:11:46.183Z,100440.36
2018-07-10T08:14:16.255Z,100442.69
2018-07-10T08:16:45.070Z,100439.80
2018-07-10T08:19:15.391Z,100443.00
2018-07-10T08:21:46.255Z,100443.69
2018-07-10T08:24:14.866Z,100439.96
2018-07-10T08:26:43.553Z,100436.52
2018-07-10T08:29:12.652Z,100436.20
2018-07-10T08:31:42.175Z,100434.19
2018-07-10T08:34:10.800Z,100432.58
2018-07-10T08:36:39.362Z,100433.20
2018-07-10T08:39:08.072Z,100435.98
2018-07-10T08:41:46.581Z,100433.53
2018-07-10T08:44:17.118Z,100426.48
2018-07-10T08:46:47.978Z,100427.86
2018-07-10T08:49:16.527Z,100423.03
2018-07-10T08:51:50.959Z,100429.13
2018-07-10T08:54:21.894Z,100426.27
2018-07-10T08:56:50.876Z,100427.38
2018-07-10T08:59:19.820Z,100425.82
2018-07-10T09:01:49.107Z,100427.19
2018-07-10T09:04:20.441Z,100422.78
2018-07-10T09:06:50.042Z,100413.97
2018-07-10T09:09:19.927Z,100412.52
2018-07-10T09:11:48.490Z,100414.31
2018-07-10T09:14:17.477Z,100418.12
2018-07-10T09:16:46.551Z,100408.61
2018-07-10T09:19:17.272Z,100410.23
2018-07-10T09:21:51.545Z,100411.73
2018-07-10T09:24:20.125Z,100403.92
2018-07-10T09:26:50.756Z,100406.58
2018-07-10T09:29:19.476Z,100405.70
2018-07-10T09:31:48.050Z,100413.09
2018-07-10T09:34:16.513Z,100409.36
2018-07-10T09:36:45.173Z,100407.11
2018-07-10T09:39:13.702Z,100412.19
2018-07-10T09:41:42.445Z,100407.28
2018-07-10T09:44:11.934Z,100407.20
2018-07-10T09:46:40.452Z,100410.27
2018-07-10T09:49:09.035Z,100404.71
2018-07-10T09:51:37.604Z,100400.34
2018-07-10T09:54:06.160Z,100408.94
2018-07-10T09:56:34.696Z,100407.70
2018-07-10T09:59:03.270Z,100410.64
2018-07-10T10:01:32.828Z,100411.02
2018-07-10T10:04:01.939Z,100411.40
2018-07-10T10:06:30.454Z,100411.36
2018-07-10T10:08:59.095Z,100411.47
2018-07-10T10:11:27.533Z,100410.69
2018-07-10T10:13:56.016Z,100412.67
2018-07-10T10:16:24.451Z,100416.45
2018-07-10T10:18:55.277Z,100414.84
2018-07-10T10:21:23.744Z,100413.47
2018-07-10T10:23:52.301Z,100413.22
2018-07-10T10:26:21.439Z,100414.67
2018-07-10T10:28:50.623Z,100419.53
2018-07-10T10:31:19.195Z,100415.43
2018-07-10T10:33:47.744Z,100419.87
2018-07-10T10:36:16.188Z,100417.39
2018-07-10T10:38:46.727Z,100416.17
2018-07-10T10:41:16.545Z,100414.97
2018-07-10T10:43:46.075Z,100417.34
2018-07-10T10:46:16.398Z,100413.44
2018-07-10T10:48:44.847Z,100414.68
2018-07-10T10:51:14.199Z,100411.52
2018-07-10T10:53:43.431Z,100411.52
2018-07-10T10:56:11.982Z,100406.50
2018-07-10T10:58:40.572Z,100415.93
2018-07-10T11:01:09.207Z,100413.19
2018-07-10T11:03:37.752Z,100416.34
2018-07-10T11:06:06.456Z,100416.84
2018-07-10T11:08:35.596Z,100413.47
2018-07-10T11:11:04.852Z,100411.77
2018-07-10T11:13:33.440Z,100412.06
2018-07-10T11:16:01.967Z,100417.09
2018-07-10T11:18:37.265Z,100410.66
2018-07-10T11:22:19.960Z,100413.73
2018-07-10T11:25:10.977Z,100417.09
2018-07-10T11:28:01.023Z,100415.38
2018-07-10T11:30:29.883Z,100418.62
2018-07-10T11:32:58.456Z,100417.41
2018-07-10T11:35:26.992Z,100419.61
2018-07-10T11:37:56.388Z,100419.44
2018-07-10T11:40:24.931Z,100417.61
2018-07-10T11:42:53.579Z,100413.38
2018-07-10T11:45:22.172Z,100417.80
2018-07-10T11:47:50.744Z,100422.23
2018-07-10T11:50:19.287Z,100422.48
2018-07-10T11:52:47.751Z,100422.61
2018-07-10T11:55:16.324Z,100419.19
2018-07-10T11:57:44.861Z,100421.25
2018-07-10T12:00:13.334Z,100420.29
2018-07-10T12:02:46.160Z,100419.64
2018-07-10T12:05:16.685Z,100425.48
2018-07-10T12:07:50.188Z,100420.45
2018-07-10T12:10:23.689Z,100421.72
2018-07-10T12:12:52.777Z,100424.47
2018-07-10T12:15:21.900Z,100420.86
2018-07-10T12:17:53.542Z,100422.20
2018-07-10T12:20:30.214Z,100414.65
2018-07-10T12:22:59.535Z,100418.52
2018-07-10T12:25:28.961Z,100411.13
2018-07-10T12:27:57.508Z,100422.09
2018-07-10T12:30:26.103Z,100422.06
2018-07-10T12:32:54.584Z,100415.31
2018-07-10T12:35:23.250Z,100427.58
2018-07-10T12:37:51.902Z,100430.52
2018-07-10T12:40:20.495Z,100433.23
2018-07-10T12:42:49.088Z,100427.25
2018-07-10T12:45:17.726Z,100429.70
2018-07-10T12:47:46.340Z,100429.18
2018-07-10T12:50:15.032Z,100425.22
2018-07-10T12:52:44.033Z,100424.25
2018-07-10T12:55:13.253Z,100422.01
2018-07-10T12:57:44.141Z,100424.10
2018-07-10T13:00:13.319Z,100429.34
2018-07-10T13:02:43.920Z,100427.27
2018-07-10T13:05:14.320Z,100424.18
2018-07-10T13:07:43.006Z,100420.95
2018-07-10T13:10:11.595Z,100423.92
2018-07-10T13:12:40.200Z,100428.45
2018-07-10T13:15:08.896Z,100434.37
2018-07-10T13:17:41.372Z,100428.50
2018-07-10T13:20:09.925Z,100430.10
2018-07-10T13:22:38.464Z,100429.44
2018-07-10T13:25:06.914Z,100426.28
2018-07-10T13:27:35.516Z,100430.42
2018-07-10T13:30:04.357Z,100427.67
2018-07-10T13:32:32.897Z,100433.05
2018-07-10T13:35:01.480Z,100427.23
2018-07-10T13:37:30.206Z,100431.30
2018-07-10T13:40:05.442Z,100436.27
2018-07-10T13:42:49.771Z,100436.84
2018-07-10T13:45:19.348Z,100437.94
2018-07-10T13:47:48.180Z,100431.50
2018-07-10T13:50:21.863Z,100436.13
2018-07-10T13:52:50.550Z,100445.96
2018-07-10T13:55:19.265Z,100436.27
2018-07-10T13:57:57.835Z,100434.49
2018-07-10T14:00:26.446Z,100429.19
2018-07-10T14:02:55.410Z,100430.69
2018-07-10T14:05:25.253Z,100427.35
2018-07-10T14:07:54.090Z,100434.38
2018-07-10T14:10:23.231Z,100430.70
2018-07-10T14:12:51.782Z,100425.15
2018-07-10T14:15:20.359Z,100427.61
2018-07-10T14:17:48.971Z,100427.48
2018-07-10T14:20:17.583Z,100425.94
2018-07-10T14:22:46.080Z,100425.82
2018-07-10T14:25:14.644Z,100426.05
2018-07-10T14:27:43.128Z,100427.16
2018-07-10T14:30:11.607Z,100428.41
2018-07-10T14:32:40.163Z,100424.75
2018-07-10T14:35:08.734Z,100427.28
2018-07-10T14:37:37.573Z,100423.87
2018-07-10T14:40:06.168Z,100425.53
2018-07-10T14:42:34.817Z,100423.81
2018-07-10T14:45:04.971Z,100425.30
2018-07-10T14:47:33.746Z,100421.75
2018-07-10T14:50:03.037Z,100420.03
2018-07-10T14:52:31.630Z,100424.22
2018-07-10T14:55:00.248Z,100422.45
2018-07-10T14:57:28.776Z,100422.15
2018-07-10T14:59:57.332Z,100426.97
2018-07-10T15:02:25.854Z,100425.22
2018-07-10T15:04:54.398Z,100416.89
2018-07-10T15:07:22.863Z,100419.00
2018-07-10T15:09:51.404Z,100418.94
2018-07-10T15:12:19.830Z,100419.86
2018-07-10T15:14:48.416Z,100413.97
2018-07-10T15:17:22.101Z,100423.59
2018-07-10T15:19:50.636Z,100419.73
2018-07-10T15:22:19.133Z,100410.83
2018-07-10T15:24:47.650Z,100415.23
2018-07-10T15:27:16.263Z,100413.93
2018-07-10T15:29:44.851Z,100405.26
2018-07-10T15:32:13.397Z,100409.59
2018-07-10T15:34:41.980Z,100410.22
2018-07-10T15:37:10.549Z,100408.88
2018-07-10T15:39:39.221Z,100402.38
2018-07-10T15:42:07.868Z,100404.70
2018-07-10T15:44:36.528Z,100406.92
2018-07-10T15:47:05.109Z,100402.64
2018-07-10T15:49:33.644Z,100403.47
2018-07-10T15:52:02.236Z,100406.61
2018-07-10T15:54:31.645Z,100405.54
2018-07-10T15:57:00.570Z,100406.98
2018-07-10T15:59:29.114Z,100407.58
2018-07-10T16:01:57.647Z,100408.65
2018-07-10T16:04:26.190Z,100405.93
2018-07-10T16:06:55.160Z,100404.51
2018-07-10T16:09:23.690Z,100408.55
2018-07-10T16:11:56.753Z,100401.04
2018-07-10T16:14:25.413Z,100411.83
2018-07-10T16:16:53.938Z,100405.02
2018-07-10T16:19:33.615Z,100404.51
2018-07-10T16:22:07.710Z,100411.30
2018-07-10T16:24:43.953Z,100410.96
2018-07-10T16:27:12.460Z,100408.09
2018-07-10T16:29:41.101Z,100409.77
2018-07-10T16:32:09.596Z,100405.32
2018-07-10T16:34:38.563Z,100413.70
2018-07-10T16:37:07.147Z,100410.58
2018-07-10T16:39:37.020Z,100407.16
2018-07-10T16:42:10.860Z,100412.03
2018-07-10T16:44:40.523Z,100409.81
2018-07-10T16:47:12.724Z,100413.00
2018-07-10T16:49:43.610Z,100414.59
2018-07-10T16:52:26.137Z,100405.91
2018-07-10T16:54:54.655Z,100414.56
2018-07-10T16:57:23.149Z,100415.92
2018-07-10T16:59:51.620Z,100418.54
2018-07-10T17:02:20.384Z,100421.19
2018-07-10T17:04:48.983Z,100408.66
2018-07-10T17:07:17.963Z,100416.91
2018-07-10T17:09:46.567Z,100414.17
2018-07-10T17:12:15.095Z,100410.81
2018-07-10T17:14:50.845Z,100411.48
2018-07-10T17:17:19.336Z,100408.77
2018-07-10T17:19:47.784Z,100409.11
2018-07-10T17:22:16.333Z,100409.33
2018-07-10T17:24:45.069Z,100415.64
2018-07-10T17:27:13.699Z,100415.02
2018-07-10T17:29:42.195Z,100418.50
2018-07-10T17:32:10.694Z,100427.05
2018-07-10T17:34:39.224Z,100416.65
2018-07-10T17:37:07.831Z,100421.34
2018-07-10T17:39:36.322Z,100418.84
2018-07-10T17:42:04.845Z,100418.84
2018-07-10T17:44:33.576Z,100420.39
2018-07-10T17:47:02.134Z,100427.26
2018-07-10T17:49:30.621Z,100421.69
2018-07-10T17:51:59.302Z,100425.92
2018-07-10T17:54:28.024Z,100428.83
2018-07-10T17:56:56.463Z,100429.66
2018-07-10T17:59:24.910Z,100434.77
2018-07-10T18:01:53.506Z,100433.02
2018-07-10T18:04:22.021Z,100441.61
2018-07-10T18:06:50.550Z,100441.18
2018-07-10T18:09:19.156Z,100438.34
2018-07-10T18:11:47.652Z,100454.39
2018-07-10T18:14:16.202Z,100455.03
2018-07-10T18:16:44.800Z,100459.39
2018-07-10T18:19:13.300Z,100456.49
2018-07-10T18:21:41.890Z,100457.92
2018-07-10T18:24:10.534Z,100465.59
2018-07-10T18:26:39.097Z,100462.95
2018-07-10T18:29:07.884Z,100463.42
2018-07-10T18:31:36.434Z,100468.39
2018-07-10T18:34:05.029Z,100475.98
2018-07-10T18:36:35.800Z,100472.56
2018-07-10T18:39:04.719Z,100470.14
2018-07-10T18:41:33.207Z,100463.69
2018-07-10T18:44:02.135Z,100463.31
2018-07-10T18:46:30.691Z,100472.20
2018-07-10T18:48:59.636Z,100474.73
2018-07-10T18:51:31.936Z,100477.98
2018-07-10T18:54:02.608Z,100471.95
2018-07-10T18:56:31.164Z,100471.84
2018-07-10T18:59:10.451Z,100479.48
2018-07-10T19:02:02.427Z,100474.80
2018-07-10T19:04:40.531Z,100473.61
2018-07-10T19:07:10.639Z,100479.17
2018-07-10T19:09:42.156Z,100473.87
2018-07-10T19:12:12.398Z,100476.77
2018-07-10T19:14:41.451Z,100485.44
2018-07-10T19:17:13.161Z,100481.51
2018-07-10T19:20:07.065Z,100492.11
2018-07-10T19:25:28.681Z,100489.78
2018-07-10T19:27:59.594Z,100489.52
2018-07-10T19:30:38.204Z,100494.28
2018-07-10T19:33:06.742Z,100494.69
2018-07-10T19:35:35.199Z,100493.07
2018-07-10T19:38:03.736Z,100491.78
2018-07-10T19:40:32.306Z,100494.64
2018-07-10T19:43:00.808Z,100499.55
2018-07-10T19:45:29.272Z,100498.06
2018-07-10T19:47:57.888Z,100497.81
2018-07-10T19:50:33.500Z,100496.84
2018-07-10T19:53:01.976Z,100492.88
2018-07-10T19:55:30.544Z,100493.07
2018-07-10T19:58:14.534Z,100488.36
2018-07-10T20:00:46.652Z,100491.78
2018-07-10T20:03:24.349Z,100489.79
2018-07-10T20:05:53.263Z,100492.00
2018-07-10T20:08:21.764Z,100492.00
2018-07-10T20:10:55.347Z,100495.22
2018-07-10T20:13:32.190Z,100494.08
2018-07-10T20:16:10.339Z,100490.77
2018-07-10T20:18:51.782Z,100492.36
2018-07-10T20:21:31.494Z,100494.67
2018-07-10T20:24:20.770Z,100491.64
2018-07-10T20:26:58.778Z,100493.89
2018-07-10T20:31:44.154Z,100499.35
2018-07-10T20:34:20.840Z,100501.02
2018-07-10T20:37:52.398Z,100502.64
2018-07-10T20:40:31.810Z,100503.98
2018-07-10T20:43:04.385Z,100508.60
2018-07-10T20:45:33.036Z,100513.92
2018-07-10T20:48:01.783Z,100515.99
2018-07-10T20:51:09.328Z,100512.45
2018-07-10T20:54:00.914Z,100503.66
2018-07-10T20:56:40.204Z,100512.23
2018-07-10T20:59:17.985Z,100513.47
2018-07-10T21:01:48.238Z,100507.84
2018-07-10T21:04:29.480Z,100512.78
2018-07-10T21:07:01.154Z,100512.23
2018-07-10T21:09:52.863Z,100513.19
2018-07-10T21:12:33.909Z,100517.95
2018-07-10T21:15:08.375Z,100511.34
2018-07-10T21:17:49.870Z,100508.30
2018-07-10T21:21:32.417Z,100509.67
2018-07-10T21:24:14.326Z,100508.19
2018-07-10T21:27:22.618Z,100507.95
2018-07-10T21:30:16.417Z,100505.76
2018-07-10T21:33:05.430Z,100509.50
2018-07-10T21:35:42.563Z,100507.42
2018-07-10T21:38:17.600Z,100512.53
2018-07-10T21:41:00.774Z,100521.60
2018-07-10T21:44:06.065Z,100518.56
2018-07-10T21:46:41.466Z,100504.84
2018-07-10T21:49:18.805Z,100503.18
2018-07-10T21:51:49.029Z,100506.55
2018-07-10T21:54:17.759Z,100507.79
2018-07-10T21:56:46.376Z,100499.56
2018-07-10T21:59:16.165Z,100510.33
2018-07-10T22:01:52.188Z,100502.26
2018-07-10T22:04:21.925Z,100503.18
2018-07-10T22:06:52.584Z,100498.77
2018-07-10T22:09:22.670Z,100500.47
2018-07-10T22:11:51.336Z,100505.26
2018-07-10T22:14:20.057Z,100502.75
2018-07-10T22:16:48.642Z,100494.66
2018-07-10T22:19:25.826Z,100503.59
2018-07-10T22:21:55.295Z,100494.23
2018-07-10T22:24:25.045Z,100484.98
2018-07-10T22:26:57.184Z,100493.73
2018-07-10T22:29:30.845Z,100491.45
2018-07-10T22:32:00.318Z,100497.47
2018-07-10T22:34:29.944Z,100498.75
2018-07-10T22:36:58.743Z,100502.63
2018-07-10T22:39:27.828Z,100499.02
2018-07-10T22:41:59.375Z,100494.39
2018-07-10T22:44:29.415Z,100502.01
2018-07-10T22:47:00.046Z,100494.77
2018-07-10T22:49:28.468Z,100506.41
2018-07-10T22:51:59.312Z,100507.41
2018-07-10T22:54:28.623Z,100504.85
2018-07-10T22:56:57.373Z,100501.16
2018-07-10T22:59:26.677Z,100506.30
2018-07-10T23:01:55.148Z,100500.71
2018-07-10T23:04:23.785Z,100500.41
2018-07-10T23:06:52.274Z,100502.38
2018-07-10T23:09:20.861Z,100492.16
2018-07-10T23:11:49.437Z,100496.73
2018-07-10T23:14:17.963Z,100497.49
2018-07-10T23:16:46.963Z,100498.13
2018-07-10T23:19:15.549Z,100498.09
2018-07-10T23:21:44.146Z,100492.30
2018-07-10T23:24:12.618Z,100490.27
2018-07-10T23:26:42.100Z,100485.95
2018-07-10T23:29:11.207Z,100481.86
2018-07-10T23:31:42.313Z,100490.00
2018-07-10T23:34:20.331Z,100491.28
2018-07-10T23:36:51.716Z,100487.34
2018-07-10T23:39:23.422Z,100483.97
2018-07-10T23:41:57.160Z,100482.25
2018-07-10T23:44:46.656Z,100480.52
2018-07-10T23:47:23.433Z,100476.47
2018-07-10T23:49:58.449Z,100482.45
2018-07-10T23:53:37.787Z,100477.27
2018-07-10T23:56:06.334Z,100471.05
2018-07-10T23:58:35.454Z,100471.92
